Hauptseite
METAR-TAF:

METAR-TAF

Flughäfen :

Heeresflugplatz Bückeburg

Bückeburg, Deutschland

Breite: 52-17N, Länge: 009-05E, Höhe: 70 m

Beobachtung

Neuester Wetterbericht von vor 45 Minuten, um 15:20 UTC
Wind 2 kt aus Nord
Temperatur 28°C
Luftfeuchtigkeit 32%
Luftdruck 1024 hPa

METAR: ETHB 231520Z AUTO 35002KT //// // ////// 28/10 Q1024 ///

Zeit: 18:05 (16:05 UTC)

Prognose

Neuester Wetterbericht von vor 5 Stunden und 11 Minuten, um 10:54 UTC
Gültige Prognose vom 23 um 05 UTC bis 23 um 14 UTC
Wind 3 kt aus unterschiedlichen Richtungen
Sichtweite: 1000 m
Leicht bewölkt in der Höhe von 30000 ft

TAF: ETHB 231054Z 2305/2314 VRB03KT 9999 NSW FEW300 CANCEL 1000

Wetterbeobachtungen und Prognosen von mehr als 4000 Flughäfen (METAR und TAF Bericht).

Die verfügbaren Stationen werden durch gelbe und rote Markierungen auf der Karte dargestellt.

Führen Sie die Maus auf sie, um den Namen der Station zu sehen.

Darauf klicken, um die Beobachtung von Wetterbeobachtungen und Prognosen zu sehen.

Um die Karte zu ändern : klicken Sie auf den grünen Tasten mit einem schwarzen Kreuz Zum Vergrößern, auf den grünen Button mit einem Gedankenstrich zu verkleinern, oder auf die grünen Pfeile für benachbarte Karten.


METAR-TAF: